sensor_id;sensor_type;location;lat;lon;timestamp;P1;durP1;ratioP1;P2;durP2;ratioP2
78989;SDS011;68390;52.130;21.218;2023-04-24T00:00:32;9.60;;;7.33;;
78989;SDS011;68390;52.130;21.218;2023-04-24T00:02:57;13.80;;;7.95;;
78989;SDS011;68390;52.130;21.218;2023-04-24T00:05:23;12.18;;;7.90;;
78989;SDS011;68390;52.130;21.218;2023-04-24T00:07:49;11.82;;;7.43;;
78989;SDS011;68390;52.130;21.218;2023-04-24T00:10:17;12.38;;;7.40;;
78989;SDS011;68390;52.130;21.218;2023-04-24T00:12:43;12.32;;;7.20;;
78989;SDS011;68390;52.130;21.218;2023-04-24T00:15:09;11.63;;;7.18;;
78989;SDS011;68390;52.130;21.218;2023-04-24T00:17:35;10.15;;;7.20;;
78989;SDS011;68390;52.130;21.218;2023-04-24T00:20:01;12.80;;;8.43;;
78989;SDS011;68390;52.130;21.218;2023-04-24T00:22:29;9.45;;;7.13;;
78989;SDS011;68390;52.130;21.218;2023-04-24T00:24:55;12.07;;;7.03;;
78989;SDS011;68390;52.130;21.218;2023-04-24T00:27:21;10.98;;;7.65;;
78989;SDS011;68390;52.130;21.218;2023-04-24T00:29:46;13.13;;;8.23;;
78989;SDS011;68390;52.130;21.218;2023-04-24T00:32:12;11.90;;;8.30;;
78989;SDS011;68390;52.130;21.218;2023-04-24T00:34:38;10.00;;;6.97;;
78989;SDS011;68390;52.130;21.218;2023-04-24T00:37:03;11.98;;;7.75;;
78989;SDS011;68390;52.130;21.218;2023-04-24T00:39:29;13.82;;;8.15;;
78989;SDS011;68390;52.130;21.218;2023-04-24T00:41:54;11.95;;;7.38;;
78989;SDS011;68390;52.130;21.218;2023-04-24T00:44:20;12.90;;;7.68;;
78989;SDS011;68390;52.130;21.218;2023-04-24T00:46:45;11.10;;;7.15;;
78989;SDS011;68390;52.130;21.218;2023-04-24T00:49:12;14.50;;;7.80;;
78989;SDS011;68390;52.130;21.218;2023-04-24T00:51:38;10.38;;;7.25;;
78989;SDS011;68390;52.130;21.218;2023-04-24T00:54:05;11.23;;;7.25;;
78989;SDS011;68390;52.130;21.218;2023-04-24T00:56:31;11.07;;;7.35;;
78989;SDS011;68390;52.130;21.218;2023-04-24T00:58:56;11.98;;;7.45;;
78989;SDS011;68390;52.130;21.218;2023-04-24T01:01:22;10.57;;;7.75;;
78989;SDS011;68390;52.130;21.218;2023-04-24T01:03:49;9.93;;;6.37;;
78989;SDS011;68390;52.130;21.218;2023-04-24T01:06:16;7.75;;;5.57;;
78989;SDS011;68390;52.130;21.218;2023-04-24T01:08:41;12.55;;;8.30;;
78989;SDS011;68390;52.130;21.218;2023-04-24T01:11:08;10.68;;;6.65;;
78989;SDS011;68390;52.130;21.218;2023-04-24T01:13:34;11.77;;;7.45;;
78989;SDS011;68390;52.130;21.218;2023-04-24T01:16:00;13.90;;;7.65;;
78989;SDS011;68390;52.130;21.218;2023-04-24T01:18:25;11.50;;;7.22;;
78989;SDS011;68390;52.130;21.218;2023-04-24T01:20:53;10.90;;;7.72;;
78989;SDS011;68390;52.130;21.218;2023-04-24T01:23:22;9.77;;;6.10;;
78989;SDS011;68390;52.130;21.218;2023-04-24T01:25:48;11.00;;;7.07;;
78989;SDS011;68390;52.130;21.218;2023-04-24T01:28:15;14.63;;;8.70;;
78989;SDS011;68390;52.130;21.218;2023-04-24T01:30:41;12.15;;;7.75;;
78989;SDS011;68390;52.130;21.218;2023-04-24T01:33:07;12.63;;;8.57;;
78989;SDS011;68390;52.130;21.218;2023-04-24T01:35:32;11.68;;;7.80;;
78989;SDS011;68390;52.130;21.218;2023-04-24T01:37:58;13.18;;;8.73;;
78989;SDS011;68390;52.130;21.218;2023-04-24T01:40:23;13.85;;;8.18;;
78989;SDS011;68390;52.130;21.218;2023-04-24T01:42:49;13.57;;;8.07;;
78989;SDS011;68390;52.130;21.218;2023-04-24T01:45:15;9.20;;;7.05;;
78989;SDS011;68390;52.130;21.218;2023-04-24T01:47:40;11.13;;;7.57;;
78989;SDS011;68390;52.130;21.218;2023-04-24T01:50:06;10.48;;;6.88;;
78989;SDS011;68390;52.130;21.218;2023-04-24T01:52:32;10.27;;;7.03;;
78989;SDS011;68390;52.130;21.218;2023-04-24T01:55:02;16.50;;;8.30;;
78989;SDS011;68390;52.130;21.218;2023-04-24T01:57:29;12.95;;;7.50;;
78989;SDS011;68390;52.130;21.218;2023-04-24T01:59:55;12.75;;;7.65;;
78989;SDS011;68390;52.130;21.218;2023-04-24T02:02:21;12.68;;;7.00;;
78989;SDS011;68390;52.130;21.218;2023-04-24T02:04:49;11.80;;;7.70;;
78989;SDS011;68390;52.130;21.218;2023-04-24T02:07:17;12.77;;;7.72;;
78989;SDS011;68390;52.130;21.218;2023-04-24T02:09:42;11.38;;;7.20;;
78989;SDS011;68390;52.130;21.218;2023-04-24T02:12:08;12.57;;;8.27;;
78989;SDS011;68390;52.130;21.218;2023-04-24T02:14:33;11.18;;;7.65;;
78989;SDS011;68390;52.130;21.218;2023-04-24T02:16:58;14.23;;;9.13;;
78989;SDS011;68390;52.130;21.218;2023-04-24T02:19:25;12.43;;;8.73;;
78989;SDS011;68390;52.130;21.218;2023-04-24T02:21:51;11.77;;;8.75;;
78989;SDS011;68390;52.130;21.218;2023-04-24T02:24:16;12.07;;;7.72;;
78989;SDS011;68390;52.130;21.218;2023-04-24T02:26:42;13.63;;;9.05;;
78989;SDS011;68390;52.130;21.218;2023-04-24T02:29:07;12.33;;;7.97;;
78989;SDS011;68390;52.130;21.218;2023-04-24T02:31:33;12.23;;;7.17;;
78989;SDS011;68390;52.130;21.218;2023-04-24T02:33:58;12.30;;;7.63;;
78989;SDS011;68390;52.130;21.218;2023-04-24T02:36:24;11.15;;;7.15;;
78989;SDS011;68390;52.130;21.218;2023-04-24T02:38:50;12.35;;;7.78;;
78989;SDS011;68390;52.130;21.218;2023-04-24T02:41:15;13.43;;;8.48;;
78989;SDS011;68390;52.130;21.218;2023-04-24T02:43:40;13.95;;;8.88;;
78989;SDS011;68390;52.130;21.218;2023-04-24T02:46:06;10.85;;;7.50;;
78989;SDS011;68390;52.130;21.218;2023-04-24T02:48:31;11.75;;;8.13;;
78989;SDS011;68390;52.130;21.218;2023-04-24T02:50:57;13.13;;;8.57;;
78989;SDS011;68390;52.130;21.218;2023-04-24T02:53:22;12.75;;;8.48;;
78989;SDS011;68390;52.130;21.218;2023-04-24T02:55:48;13.00;;;8.27;;
78989;SDS011;68390;52.130;21.218;2023-04-24T02:58:14;13.63;;;9.05;;
78989;SDS011;68390;52.130;21.218;2023-04-24T03:00:39;13.18;;;8.60;;
78989;SDS011;68390;52.130;21.218;2023-04-24T03:03:05;12.35;;;9.02;;
78989;SDS011;68390;52.130;21.218;2023-04-24T03:05:31;13.35;;;9.00;;
78989;SDS011;68390;52.130;21.218;2023-04-24T03:07:57;13.57;;;9.55;;
78989;SDS011;68390;52.130;21.218;2023-04-24T03:10:22;15.00;;;9.63;;
78989;SDS011;68390;52.130;21.218;2023-04-24T03:12:48;17.42;;;10.02;;
78989;SDS011;68390;52.130;21.218;2023-04-24T03:15:16;14.90;;;8.88;;
78989;SDS011;68390;52.130;21.218;2023-04-24T03:17:41;13.93;;;9.10;;
78989;SDS011;68390;52.130;21.218;2023-04-24T03:20:07;19.58;;;9.50;;
78989;SDS011;68390;52.130;21.218;2023-04-24T03:22:33;38.20;;;12.30;;
78989;SDS011;68390;52.130;21.218;2023-04-24T03:24:59;15.55;;;9.80;;
78989;SDS011;68390;52.130;21.218;2023-04-24T03:27:24;12.88;;;9.07;;
78989;SDS011;68390;52.130;21.218;2023-04-24T03:29:50;16.85;;;9.70;;
78989;SDS011;68390;52.130;21.218;2023-04-24T03:32:21;15.60;;;9.77;;
78989;SDS011;68390;52.130;21.218;2023-04-24T03:34:48;14.23;;;9.57;;
78989;SDS011;68390;52.130;21.218;2023-04-24T03:37:13;13.40;;;8.93;;
78989;SDS011;68390;52.130;21.218;2023-04-24T03:39:40;13.93;;;9.75;;
78989;SDS011;68390;52.130;21.218;2023-04-24T03:42:05;15.80;;;9.43;;
78989;SDS011;68390;52.130;21.218;2023-04-24T03:44:30;32.47;;;12.55;;
78989;SDS011;68390;52.130;21.218;2023-04-24T03:46:57;24.90;;;10.23;;
78989;SDS011;68390;52.130;21.218;2023-04-24T03:49:23;30.73;;;12.20;;
78989;SDS011;68390;52.130;21.218;2023-04-24T03:51:48;15.57;;;10.45;;
78989;SDS011;68390;52.130;21.218;2023-04-24T03:54:14;14.52;;;9.95;;
78989;SDS011;68390;52.130;21.218;2023-04-24T03:56:39;22.77;;;10.82;;
78989;SDS011;68390;52.130;21.218;2023-04-24T03:59:05;16.77;;;9.60;;
78989;SDS011;68390;52.130;21.218;2023-04-24T04:01:30;14.40;;;9.18;;
78989;SDS011;68390;52.130;21.218;2023-04-24T04:03:56;15.60;;;10.35;;
78989;SDS011;68390;52.130;21.218;2023-04-24T04:06:21;11.60;;;8.32;;
78989;SDS011;68390;52.130;21.218;2023-04-24T04:08:47;14.13;;;8.60;;
78989;SDS011;68390;52.130;21.218;2023-04-24T04:11:12;13.70;;;9.85;;
78989;SDS011;68390;52.130;21.218;2023-04-24T04:13:37;22.70;;;11.55;;
78989;SDS011;68390;52.130;21.218;2023-04-24T04:16:03;17.33;;;9.85;;
78989;SDS011;68390;52.130;21.218;2023-04-24T04:18:28;14.00;;;8.68;;
78989;SDS011;68390;52.130;21.218;2023-04-24T04:20:54;16.15;;;10.32;;
78989;SDS011;68390;52.130;21.218;2023-04-24T04:23:19;16.08;;;10.40;;
78989;SDS011;68390;52.130;21.218;2023-04-24T04:25:45;19.17;;;11.80;;
78989;SDS011;68390;52.130;21.218;2023-04-24T04:28:11;16.85;;;10.75;;
78989;SDS011;68390;52.130;21.218;2023-04-24T04:30:37;17.27;;;10.23;;
78989;SDS011;68390;52.130;21.218;2023-04-24T04:33:03;15.07;;;9.45;;
78989;SDS011;68390;52.130;21.218;2023-04-24T04:35:28;22.25;;;10.40;;
78989;SDS011;68390;52.130;21.218;2023-04-24T04:37:54;16.75;;;9.88;;
78989;SDS011;68390;52.130;21.218;2023-04-24T04:40:19;13.73;;;9.88;;
78989;SDS011;68390;52.130;21.218;2023-04-24T04:42:45;17.15;;;10.13;;
78989;SDS011;68390;52.130;21.218;2023-04-24T04:45:11;19.23;;;10.60;;
78989;SDS011;68390;52.130;21.218;2023-04-24T04:47:36;12.98;;;9.25;;
78989;SDS011;68390;52.130;21.218;2023-04-24T04:50:02;21.92;;;9.93;;
78989;SDS011;68390;52.130;21.218;2023-04-24T04:52:28;14.88;;;9.90;;
78989;SDS011;68390;52.130;21.218;2023-04-24T04:54:54;14.00;;;9.70;;
78989;SDS011;68390;52.130;21.218;2023-04-24T04:57:20;15.15;;;11.35;;
78989;SDS011;68390;52.130;21.218;2023-04-24T04:59:46;13.52;;;10.43;;
78989;SDS011;68390;52.130;21.218;2023-04-24T05:02:11;15.60;;;9.90;;
78989;SDS011;68390;52.130;21.218;2023-04-24T05:04:37;14.45;;;9.75;;
78989;SDS011;68390;52.130;21.218;2023-04-24T05:07:03;12.70;;;8.27;;
78989;SDS011;68390;52.130;21.218;2023-04-24T05:09:28;14.85;;;9.50;;
78989;SDS011;68390;52.130;21.218;2023-04-24T05:11:54;13.55;;;10.02;;
78989;SDS011;68390;52.130;21.218;2023-04-24T05:14:20;11.90;;;9.85;;
78989;SDS011;68390;52.130;21.218;2023-04-24T05:16:45;19.35;;;11.10;;
78989;SDS011;68390;52.130;21.218;2023-04-24T05:19:11;14.70;;;10.07;;
78989;SDS011;68390;52.130;21.218;2023-04-24T05:21:38;15.07;;;9.35;;
78989;SDS011;68390;52.130;21.218;2023-04-24T05:24:05;14.07;;;10.05;;
78989;SDS011;68390;52.130;21.218;2023-04-24T05:26:30;16.38;;;10.35;;
78989;SDS011;68390;52.130;21.218;2023-04-24T05:28:56;14.13;;;10.15;;
78989;SDS011;68390;52.130;21.218;2023-04-24T05:31:22;16.85;;;9.85;;
78989;SDS011;68390;52.130;21.218;2023-04-24T05:33:47;15.40;;;10.38;;
78989;SDS011;68390;52.130;21.218;2023-04-24T05:36:12;23.25;;;10.38;;
78989;SDS011;68390;52.130;21.218;2023-04-24T05:38:38;18.95;;;10.95;;
78989;SDS011;68390;52.130;21.218;2023-04-24T05:41:03;24.23;;;12.20;;
78989;SDS011;68390;52.130;21.218;2023-04-24T05:43:29;18.15;;;12.18;;
78989;SDS011;68390;52.130;21.218;2023-04-24T05:45:55;20.55;;;12.60;;
78989;SDS011;68390;52.130;21.218;2023-04-24T05:48:20;23.65;;;11.93;;
78989;SDS011;68390;52.130;21.218;2023-04-24T05:50:47;16.85;;;10.20;;
78989;SDS011;68390;52.130;21.218;2023-04-24T05:53:13;21.40;;;11.70;;
78989;SDS011;68390;52.130;21.218;2023-04-24T05:55:38;17.33;;;11.13;;
78989;SDS011;68390;52.130;21.218;2023-04-24T05:58:04;14.45;;;10.60;;
78989;SDS011;68390;52.130;21.218;2023-04-24T06:00:29;14.30;;;10.02;;
78989;SDS011;68390;52.130;21.218;2023-04-24T06:02:55;15.50;;;9.18;;
78989;SDS011;68390;52.130;21.218;2023-04-24T06:05:21;17.77;;;10.63;;
78989;SDS011;68390;52.130;21.218;2023-04-24T06:07:46;18.45;;;10.68;;
78989;SDS011;68390;52.130;21.218;2023-04-24T06:10:12;14.82;;;8.90;;
78989;SDS011;68390;52.130;21.218;2023-04-24T06:12:38;16.92;;;10.18;;
78989;SDS011;68390;52.130;21.218;2023-04-24T06:15:03;15.13;;;9.85;;
78989;SDS011;68390;52.130;21.218;2023-04-24T06:17:29;15.65;;;9.80;;
78989;SDS011;68390;52.130;21.218;2023-04-24T06:19:55;13.73;;;9.75;;
78989;SDS011;68390;52.130;21.218;2023-04-24T06:22:21;14.93;;;8.67;;
78989;SDS011;68390;52.130;21.218;2023-04-24T06:24:46;16.67;;;9.50;;
78989;SDS011;68390;52.130;21.218;2023-04-24T06:27:13;13.70;;;8.95;;
78989;SDS011;68390;52.130;21.218;2023-04-24T06:29:38;14.55;;;8.82;;
78989;SDS011;68390;52.130;21.218;2023-04-24T06:32:04;11.60;;;8.60;;
78989;SDS011;68390;52.130;21.218;2023-04-24T06:34:29;12.48;;;8.82;;
78989;SDS011;68390;52.130;21.218;2023-04-24T06:36:55;13.00;;;8.05;;
78989;SDS011;68390;52.130;21.218;2023-04-24T06:39:21;17.27;;;8.23;;
78989;SDS011;68390;52.130;21.218;2023-04-24T06:41:47;13.10;;;8.60;;
78989;SDS011;68390;52.130;21.218;2023-04-24T06:44:12;17.00;;;7.68;;
78989;SDS011;68390;52.130;21.218;2023-04-24T06:46:39;14.07;;;8.30;;
78989;SDS011;68390;52.130;21.218;2023-04-24T06:49:05;18.60;;;9.55;;
78989;SDS011;68390;52.130;21.218;2023-04-24T06:51:31;16.17;;;8.30;;
78989;SDS011;68390;52.130;21.218;2023-04-24T06:53:58;18.23;;;9.25;;
78989;SDS011;68390;52.130;21.218;2023-04-24T06:56:24;14.50;;;9.70;;
78989;SDS011;68390;52.130;21.218;2023-04-24T06:58:50;12.50;;;9.00;;
78989;SDS011;68390;52.130;21.218;2023-04-24T07:01:16;15.13;;;8.65;;
78989;SDS011;68390;52.130;21.218;2023-04-24T07:03:42;16.30;;;8.23;;
78989;SDS011;68390;52.130;21.218;2023-04-24T07:06:07;14.60;;;7.95;;
78989;SDS011;68390;52.130;21.218;2023-04-24T07:08:33;11.57;;;7.90;;
78989;SDS011;68390;52.130;21.218;2023-04-24T07:10:59;12.48;;;8.27;;
78989;SDS011;68390;52.130;21.218;2023-04-24T07:13:24;12.35;;;9.07;;
78989;SDS011;68390;52.130;21.218;2023-04-24T07:15:51;12.70;;;7.80;;
78989;SDS011;68390;52.130;21.218;2023-04-24T07:18:18;11.50;;;7.50;;
78989;SDS011;68390;52.130;21.218;2023-04-24T07:20:44;10.60;;;7.13;;
78989;SDS011;68390;52.130;21.218;2023-04-24T07:23:10;11.23;;;7.70;;
78989;SDS011;68390;52.130;21.218;2023-04-24T07:25:35;10.07;;;7.35;;
78989;SDS011;68390;52.130;21.218;2023-04-24T07:28:01;11.20;;;8.15;;
78989;SDS011;68390;52.130;21.218;2023-04-24T07:30:26;10.88;;;7.47;;
78989;SDS011;68390;52.130;21.218;2023-04-24T07:32:54;12.32;;;7.18;;
78989;SDS011;68390;52.130;21.218;2023-04-24T07:35:19;11.63;;;7.38;;
78989;SDS011;68390;52.130;21.218;2023-04-24T07:37:45;14.45;;;7.45;;
78989;SDS011;68390;52.130;21.218;2023-04-24T07:40:12;10.82;;;7.28;;
78989;SDS011;68390;52.130;21.218;2023-04-24T07:42:38;12.45;;;7.50;;
78989;SDS011;68390;52.130;21.218;2023-04-24T07:45:03;8.93;;;6.20;;
78989;SDS011;68390;52.130;21.218;2023-04-24T07:47:30;10.52;;;7.45;;
78989;SDS011;68390;52.130;21.218;2023-04-24T07:49:55;11.73;;;7.43;;
78989;SDS011;68390;52.130;21.218;2023-04-24T07:52:21;11.45;;;7.00;;
78989;SDS011;68390;52.130;21.218;2023-04-24T07:54:46;11.82;;;7.18;;
78989;SDS011;68390;52.130;21.218;2023-04-24T07:57:11;10.15;;;7.18;;
78989;SDS011;68390;52.130;21.218;2023-04-24T07:59:37;8.90;;;7.70;;
78989;SDS011;68390;52.130;21.218;2023-04-24T08:02:02;11.43;;;6.78;;
78989;SDS011;68390;52.130;21.218;2023-04-24T08:04:28;9.18;;;6.63;;
78989;SDS011;68390;52.130;21.218;2023-04-24T08:06:53;11.70;;;6.95;;
78989;SDS011;68390;52.130;21.218;2023-04-24T08:09:19;10.65;;;6.93;;
78989;SDS011;68390;52.130;21.218;2023-04-24T08:11:44;10.80;;;7.07;;
78989;SDS011;68390;52.130;21.218;2023-04-24T08:14:10;10.70;;;7.53;;
78989;SDS011;68390;52.130;21.218;2023-04-24T08:16:37;10.93;;;7.03;;
78989;SDS011;68390;52.130;21.218;2023-04-24T08:19:02;9.88;;;6.22;;
78989;SDS011;68390;52.130;21.218;2023-04-24T08:21:28;9.38;;;6.88;;
78989;SDS011;68390;52.130;21.218;2023-04-24T08:23:53;9.80;;;6.10;;
78989;SDS011;68390;52.130;21.218;2023-04-24T08:26:19;11.13;;;6.43;;
78989;SDS011;68390;52.130;21.218;2023-04-24T08:28:45;14.55;;;6.80;;
78989;SDS011;68390;52.130;21.218;2023-04-24T08:31:10;10.20;;;7.15;;
78989;SDS011;68390;52.130;21.218;2023-04-24T08:33:36;11.30;;;7.30;;
78989;SDS011;68390;52.130;21.218;2023-04-24T08:36:02;11.02;;;7.07;;
78989;SDS011;68390;52.130;21.218;2023-04-24T08:38:28;12.32;;;6.97;;
78989;SDS011;68390;52.130;21.218;2023-04-24T08:40:54;9.25;;;6.60;;
78989;SDS011;68390;52.130;21.218;2023-04-24T08:43:21;11.52;;;7.30;;
78989;SDS011;68390;52.130;21.218;2023-04-24T08:45:47;9.98;;;6.95;;
78989;SDS011;68390;52.130;21.218;2023-04-24T08:48:12;10.60;;;7.25;;
78989;SDS011;68390;52.130;21.218;2023-04-24T08:50:38;11.35;;;8.07;;
78989;SDS011;68390;52.130;21.218;2023-04-24T08:53:07;11.15;;;7.85;;
78989;SDS011;68390;52.130;21.218;2023-04-24T08:55:33;11.20;;;7.82;;
78989;SDS011;68390;52.130;21.218;2023-04-24T08:57:59;9.70;;;7.32;;
78989;SDS011;68390;52.130;21.218;2023-04-24T09:00:26;11.88;;;8.05;;
78989;SDS011;68390;52.130;21.218;2023-04-24T09:02:52;10.13;;;8.35;;
78989;SDS011;68390;52.130;21.218;2023-04-24T09:05:18;11.93;;;8.95;;
78989;SDS011;68390;52.130;21.218;2023-04-24T09:07:55;11.63;;;8.27;;
78989;SDS011;68390;52.130;21.218;2023-04-24T09:10:22;10.68;;;7.50;;
78989;SDS011;68390;52.130;21.218;2023-04-24T09:12:50;11.57;;;7.35;;
78989;SDS011;68390;52.130;21.218;2023-04-24T09:15:16;13.25;;;7.65;;
78989;SDS011;68390;52.130;21.218;2023-04-24T09:17:41;9.25;;;7.70;;
78989;SDS011;68390;52.130;21.218;2023-04-24T09:20:08;9.82;;;7.30;;
78989;SDS011;68390;52.130;21.218;2023-04-24T09:22:33;11.10;;;7.47;;
78989;SDS011;68390;52.130;21.218;2023-04-24T09:25:00;9.75;;;7.50;;
78989;SDS011;68390;52.130;21.218;2023-04-24T09:27:28;11.05;;;7.85;;
78989;SDS011;68390;52.130;21.218;2023-04-24T09:29:54;11.93;;;8.25;;
78989;SDS011;68390;52.130;21.218;2023-04-24T09:32:21;11.38;;;7.22;;
78989;SDS011;68390;52.130;21.218;2023-04-24T09:34:47;10.07;;;7.93;;
78989;SDS011;68390;52.130;21.218;2023-04-24T09:37:29;11.52;;;8.02;;
78989;SDS011;68390;52.130;21.218;2023-04-24T09:40:07;10.40;;;7.78;;
78989;SDS011;68390;52.130;21.218;2023-04-24T09:42:53;9.57;;;7.35;;
78989;SDS011;68390;52.130;21.218;2023-04-24T09:45:21;10.70;;;7.60;;
78989;SDS011;68390;52.130;21.218;2023-04-24T09:47:52;11.15;;;7.07;;
78989;SDS011;68390;52.130;21.218;2023-04-24T09:52:47;11.88;;;7.32;;
78989;SDS011;68390;52.130;21.218;2023-04-24T09:55:21;10.73;;;8.35;;
78989;SDS011;68390;52.130;21.218;2023-04-24T09:57:50;11.68;;;7.35;;
78989;SDS011;68390;52.130;21.218;2023-04-24T10:00:24;10.23;;;8.07;;
78989;SDS011;68390;52.130;21.218;2023-04-24T10:03:09;10.15;;;8.00;;
78989;SDS011;68390;52.130;21.218;2023-04-24T10:05:36;10.02;;;6.93;;
78989;SDS011;68390;52.130;21.218;2023-04-24T10:08:06;10.90;;;7.60;;
78989;SDS011;68390;52.130;21.218;2023-04-24T10:10:33;9.93;;;7.15;;
78989;SDS011;68390;52.130;21.218;2023-04-24T10:13:10;11.18;;;7.78;;
78989;SDS011;68390;52.130;21.218;2023-04-24T10:15:37;12.05;;;7.13;;
78989;SDS011;68390;52.130;21.218;2023-04-24T10:18:04;9.90;;;6.70;;
78989;SDS011;68390;52.130;21.218;2023-04-24T10:20:31;8.65;;;6.32;;
78989;SDS011;68390;52.130;21.218;2023-04-24T10:22:58;10.57;;;7.07;;
78989;SDS011;68390;52.130;21.218;2023-04-24T10:25:25;9.20;;;7.55;;
78989;SDS011;68390;52.130;21.218;2023-04-24T10:27:53;14.43;;;7.10;;
78989;SDS011;68390;52.130;21.218;2023-04-24T10:30:24;9.45;;;7.07;;
78989;SDS011;68390;52.130;21.218;2023-04-24T10:32:52;13.65;;;7.95;;
78989;SDS011;68390;52.130;21.218;2023-04-24T10:35:17;10.00;;;7.25;;
78989;SDS011;68390;52.130;21.218;2023-04-24T10:37:58;10.05;;;7.18;;
78989;SDS011;68390;52.130;21.218;2023-04-24T10:40:32;11.60;;;7.38;;
78989;SDS011;68390;52.130;21.218;2023-04-24T10:43:02;10.13;;;6.00;;
78989;SDS011;68390;52.130;21.218;2023-04-24T10:45:31;8.82;;;6.13;;
78989;SDS011;68390;52.130;21.218;2023-04-24T10:48:03;11.48;;;7.93;;
78989;SDS011;68390;52.130;21.218;2023-04-24T10:50:47;9.43;;;6.80;;
78989;SDS011;68390;52.130;21.218;2023-04-24T10:53:17;9.80;;;6.60;;
78989;SDS011;68390;52.130;21.218;2023-04-24T10:55:57;8.60;;;5.95;;
78989;SDS011;68390;52.130;21.218;2023-04-24T10:58:43;10.95;;;7.05;;
78989;SDS011;68390;52.130;21.218;2023-04-24T11:01:27;11.25;;;6.07;;
78989;SDS011;68390;52.130;21.218;2023-04-24T11:03:57;10.02;;;6.18;;
78989;SDS011;68390;52.130;21.218;2023-04-24T11:06:34;8.80;;;6.55;;
78989;SDS011;68390;52.130;21.218;2023-04-24T11:09:05;7.90;;;6.05;;
78989;SDS011;68390;52.130;21.218;2023-04-24T11:11:32;9.45;;;6.35;;
78989;SDS011;68390;52.130;21.218;2023-04-24T11:16:31;9.38;;;6.20;;
78989;SDS011;68390;52.130;21.218;2023-04-24T11:19:09;8.63;;;6.18;;
78989;SDS011;68390;52.130;21.218;2023-04-24T11:21:45;11.35;;;6.47;;
78989;SDS011;68390;52.130;21.218;2023-04-24T11:24:27;9.38;;;6.55;;
78989;SDS011;68390;52.130;21.218;2023-04-24T11:27:26;8.52;;;6.32;;
78989;SDS011;68390;52.130;21.218;2023-04-24T11:29:58;10.45;;;7.07;;
78989;SDS011;68390;52.130;21.218;2023-04-24T11:32:29;10.10;;;6.90;;
78989;SDS011;68390;52.130;21.218;2023-04-24T11:35:08;9.82;;;6.70;;
78989;SDS011;68390;52.130;21.218;2023-04-24T11:37:35;10.25;;;6.20;;
78989;SDS011;68390;52.130;21.218;2023-04-24T11:40:14;9.32;;;6.25;;
78989;SDS011;68390;52.130;21.218;2023-04-24T11:42:44;8.85;;;6.07;;
78989;SDS011;68390;52.130;21.218;2023-04-24T11:45:12;11.50;;;6.22;;
78989;SDS011;68390;52.130;21.218;2023-04-24T11:47:39;8.23;;;6.45;;
78989;SDS011;68390;52.130;21.218;2023-04-24T11:50:10;7.97;;;7.15;;
78989;SDS011;68390;52.130;21.218;2023-04-24T11:52:38;10.65;;;6.80;;
78989;SDS011;68390;52.130;21.218;2023-04-24T11:55:12;13.25;;;7.07;;
78989;SDS011;68390;52.130;21.218;2023-04-24T11:57:51;9.13;;;6.82;;
78989;SDS011;68390;52.130;21.218;2023-04-24T12:00:19;10.38;;;6.20;;
78989;SDS011;68390;52.130;21.218;2023-04-24T12:02:46;8.73;;;5.82;;
78989;SDS011;68390;52.130;21.218;2023-04-24T12:05:19;8.60;;;5.65;;
78989;SDS011;68390;52.130;21.218;2023-04-24T12:07:46;8.90;;;5.63;;
78989;SDS011;68390;52.130;21.218;2023-04-24T12:10:11;7.35;;;5.97;;
78989;SDS011;68390;52.130;21.218;2023-04-24T12:12:37;7.90;;;5.93;;
78989;SDS011;68390;52.130;21.218;2023-04-24T12:15:06;10.18;;;5.90;;
78989;SDS011;68390;52.130;21.218;2023-04-24T12:17:33;11.75;;;6.38;;
78989;SDS011;68390;52.130;21.218;2023-04-24T12:20:05;8.65;;;6.80;;
78989;SDS011;68390;52.130;21.218;2023-04-24T12:25:15;8.90;;;6.10;;
78989;SDS011;68390;52.130;21.218;2023-04-24T12:27:52;10.18;;;7.10;;
78989;SDS011;68390;52.130;21.218;2023-04-24T12:30:19;8.57;;;6.00;;
78989;SDS011;68390;52.130;21.218;2023-04-24T12:32:46;7.07;;;5.55;;
78989;SDS011;68390;52.130;21.218;2023-04-24T12:35:13;7.07;;;5.55;;
78989;SDS011;68390;52.130;21.218;2023-04-24T12:37:41;11.52;;;5.95;;
78989;SDS011;68390;52.130;21.218;2023-04-24T12:40:09;6.35;;;5.13;;
78989;SDS011;68390;52.130;21.218;2023-04-24T12:42:36;9.00;;;5.10;;
78989;SDS011;68390;52.130;21.218;2023-04-24T12:45:07;9.25;;;5.47;;
78989;SDS011;68390;52.130;21.218;2023-04-24T12:47:33;9.27;;;5.13;;
78989;SDS011;68390;52.130;21.218;2023-04-24T12:50:00;10.15;;;4.93;;
78989;SDS011;68390;52.130;21.218;2023-04-24T12:52:27;11.32;;;4.88;;
78989;SDS011;68390;52.130;21.218;2023-04-24T12:54:55;7.72;;;4.65;;
78989;SDS011;68390;52.130;21.218;2023-04-24T12:57:22;6.57;;;4.65;;
78989;SDS011;68390;52.130;21.218;2023-04-24T12:59:48;7.10;;;4.68;;
78989;SDS011;68390;52.130;21.218;2023-04-24T13:02:14;8.32;;;4.63;;
78989;SDS011;68390;52.130;21.218;2023-04-24T13:04:43;9.40;;;5.45;;
78989;SDS011;68390;52.130;21.218;2023-04-24T13:07:09;10.18;;;5.20;;
78989;SDS011;68390;52.130;21.218;2023-04-24T13:09:35;9.27;;;5.15;;
78989;SDS011;68390;52.130;21.218;2023-04-24T13:12:00;9.98;;;5.78;;
78989;SDS011;68390;52.130;21.218;2023-04-24T13:14:26;11.50;;;6.38;;
78989;SDS011;68390;52.130;21.218;2023-04-24T13:16:51;7.57;;;5.90;;
78989;SDS011;68390;52.130;21.218;2023-04-24T13:19:17;8.32;;;6.22;;
78989;SDS011;68390;52.130;21.218;2023-04-24T13:21:43;7.80;;;5.40;;
78989;SDS011;68390;52.130;21.218;2023-04-24T13:24:08;8.73;;;5.78;;
78989;SDS011;68390;52.130;21.218;2023-04-24T13:26:35;8.55;;;5.85;;
78989;SDS011;68390;52.130;21.218;2023-04-24T13:29:00;8.70;;;7.28;;
78989;SDS011;68390;52.130;21.218;2023-04-24T13:31:26;7.75;;;5.95;;
78989;SDS011;68390;52.130;21.218;2023-04-24T13:33:51;7.60;;;6.05;;
78989;SDS011;68390;52.130;21.218;2023-04-24T13:36:16;10.77;;;6.68;;
78989;SDS011;68390;52.130;21.218;2023-04-24T13:38:42;6.05;;;4.93;;
78989;SDS011;68390;52.130;21.218;2023-04-24T13:41:09;5.38;;;4.00;;
78989;SDS011;68390;52.130;21.218;2023-04-24T13:43:35;6.00;;;3.55;;
78989;SDS011;68390;52.130;21.218;2023-04-24T13:46:00;7.70;;;4.30;;
78989;SDS011;68390;52.130;21.218;2023-04-24T13:48:27;6.85;;;4.40;;
78989;SDS011;68390;52.130;21.218;2023-04-24T13:50:53;8.00;;;4.60;;
78989;SDS011;68390;52.130;21.218;2023-04-24T13:53:19;4.75;;;3.60;;
78989;SDS011;68390;52.130;21.218;2023-04-24T13:55:44;5.15;;;4.45;;
78989;SDS011;68390;52.130;21.218;2023-04-24T13:58:09;5.88;;;3.78;;
78989;SDS011;68390;52.130;21.218;2023-04-24T14:00:35;5.90;;;4.43;;
78989;SDS011;68390;52.130;21.218;2023-04-24T14:03:01;6.18;;;3.97;;
78989;SDS011;68390;52.130;21.218;2023-04-24T14:05:26;5.60;;;4.53;;
78989;SDS011;68390;52.130;21.218;2023-04-24T14:07:51;7.15;;;4.70;;
78989;SDS011;68390;52.130;21.218;2023-04-24T14:10:17;5.03;;;4.53;;
78989;SDS011;68390;52.130;21.218;2023-04-24T14:12:42;5.28;;;4.03;;
78989;SDS011;68390;52.130;21.218;2023-04-24T14:15:08;4.63;;;3.70;;
78989;SDS011;68390;52.130;21.218;2023-04-24T14:17:34;5.82;;;3.55;;
78989;SDS011;68390;52.130;21.218;2023-04-24T14:19:59;7.05;;;4.65;;
78989;SDS011;68390;52.130;21.218;2023-04-24T14:22:25;6.15;;;4.20;;
78989;SDS011;68390;52.130;21.218;2023-04-24T14:24:51;5.82;;;4.53;;
78989;SDS011;68390;52.130;21.218;2023-04-24T14:27:16;6.82;;;4.95;;
78989;SDS011;68390;52.130;21.218;2023-04-24T14:29:42;5.40;;;4.00;;